Time;durP1;ratioP1;P1;durP2;ratioP2;P2;SDS_P1;SDS_P2;PMS_P1;PMS_P2;Temp;Humidity;BMP_temperature;BMP_pressure;BME280_temperature;BME280_humidity;BME280_pressure;Samples;Min_cycle;Max_cycle;Signal;HPM_P1;HPM_P2
2021/12/27 00:01:46;;;;;;;13.90;10.40;;;;;;;1.59;82.81;96855.06;108258;1269;67987;-72
2021/12/27 00:04:15;;;;;;;20.70;13.60;;;;;;;1.57;82.86;96859.79;108178;1271;69633;-75
2021/12/27 00:06:45;;;;;;;15.20;10.50;;;;;;;1.57;83.01;96857.77;108359;1271;58910;-72
2021/12/27 00:09:14;;;;;;;17.40;13.90;;;;;;;1.57;83.17;96859.81;108337;1270;58902;-74
2021/12/27 00:11:43;;;;;;;17.70;13.90;;;;;;;1.57;83.15;96861.17;108186;1271;70246;-73
2021/12/27 00:14:15;;;;;;;12.80;8.90;;;;;;;1.55;83.13;96858.16;108338;1267;68647;-74
2021/12/27 00:16:45;;;;;;;18.50;12.80;;;;;;;1.53;83.33;96857.57;108292;1271;69492;-73
2021/12/27 00:19:14;;;;;;;13.30;9.70;;;;;;;1.52;83.27;96855.73;108279;1269;58957;-74
2021/12/27 00:21:43;;;;;;;16.70;12.70;;;;;;;1.53;83.10;96853.98;108321;1269;58880;-73
2021/12/27 00:24:12;;;;;;;23.30;15.50;;;;;;;1.50;83.03;96853.73;108172;1271;70028;-74
2021/12/27 00:26:41;;;;;;;20.60;14.60;;;;;;;1.45;83.31;96855.34;108066;1269;68429;-74
2021/12/27 00:29:11;;;;;;;15.00;10.10;;;;;;;1.42;83.56;96854.95;108122;1272;69598;-73
2021/12/27 00:31:40;;;;;;;15.70;11.20;;;;;;;1.43;83.64;96855.80;108241;1269;58811;-74
2021/12/27 00:34:09;;;;;;;19.30;12.70;;;;;;;1.45;83.58;96859.98;108240;1269;58919;-74
2021/12/27 00:36:39;;;;;;;11.20;8.80;;;;;;;1.48;83.75;96864.49;108124;1271;71185;-73
2021/12/27 00:39:08;;;;;;;17.90;12.80;;;;;;;1.51;83.67;96861.77;108299;1271;67980;-74
2021/12/27 00:41:37;;;;;;;19.70;13.00;;;;;;;1.53;83.57;96861.68;108229;1271;69275;-74
2021/12/27 00:44:06;;;;;;;17.00;13.40;;;;;;;1.56;83.60;96860.75;108106;1271;58917;-72
2021/12/27 00:46:35;;;;;;;14.20;10.80;;;;;;;1.56;83.72;96860.54;108203;1271;58887;-72
2021/12/27 00:49:04;;;;;;;14.30;10.30;;;;;;;1.60;83.80;96862.45;108289;1269;70874;-72
2021/12/27 00:51:33;;;;;;;15.50;11.70;;;;;;;1.64;83.73;96867.37;108279;1271;68754;-71
2021/12/27 00:54:02;;;;;;;18.60;13.70;;;;;;;1.69;83.63;96874.73;108272;1271;68760;-71
2021/12/27 00:56:32;;;;;;;13.20;10.00;;;;;;;1.70;83.60;96882.02;108334;1271;58809;-72
2021/12/27 00:59:02;;;;;;;12.80;10.90;;;;;;;1.74;83.74;96882.21;108310;1270;58954;-72
2021/12/27 01:01:32;;;;;;;12.20;10.20;;;;;;;1.76;83.75;96886.92;107860;1272;601085;-73
2021/12/27 01:04:03;;;;;;;13.10;9.50;;;;;;;1.79;83.68;96885.59;108352;1268;68728;-74
2021/12/27 01:06:33;;;;;;;10.70;8.10;;;;;;;1.83;83.70;96878.38;108423;1269;69274;-72
2021/12/27 01:09:04;;;;;;;13.40;10.00;;;;;;;1.86;83.57;96872.58;108426;1269;58967;-72
2021/12/27 01:14:27;;;;;;;12.30;10.60;;;;;;;1.91;83.60;96864.56;108143;1271;70318;-72
2021/12/27 01:16:56;;;;;;;14.80;11.70;;;;;;;1.95;83.49;96866.80;108336;1269;68616;-73
2021/12/27 01:19:25;;;;;;;19.60;13.90;;;;;;;1.97;83.38;96860.36;108267;1269;68706;-73
2021/12/27 01:21:54;;;;;;;12.70;10.60;;;;;;;1.98;83.31;96860.48;108287;1269;58945;-72
2021/12/27 01:24:24;;;;;;;14.30;11.10;;;;;;;2.00;83.35;96859.02;108333;1269;58903;-74
2021/12/27 01:26:53;;;;;;;15.40;13.00;;;;;;;2.01;83.29;96859.48;108296;1271;70573;-72
2021/12/27 01:29:22;;;;;;;12.30;10.80;;;;;;;2.01;83.20;96857.58;108141;1271;68061;-72
2021/12/27 01:31:51;;;;;;;20.40;15.80;;;;;;;1.99;83.14;96853.36;108111;1271;68638;-73
2021/12/27 01:34:23;;;;;;;16.70;13.20;;;;;;;1.94;83.15;96849.81;108374;1269;58907;-73
2021/12/27 01:36:56;;;;;;;17.00;13.20;;;;;;;1.93;83.40;96848.66;108296;1269;58885;-73
2021/12/27 01:39:26;;;;;;;16.40;12.70;;;;;;;1.94;83.56;96848.13;108396;1268;70833;-73
2021/12/27 01:41:55;;;;;;;20.40;15.60;;;;;;;1.95;83.67;96846.00;108279;1271;68455;-74
2021/12/27 01:44:24;;;;;;;15.30;10.60;;;;;;;1.94;83.92;96853.11;108332;1269;69571;-74
2021/12/27 01:46:54;;;;;;;12.60;8.70;;;;;;;1.95;83.85;96855.66;108340;1270;58913;-74
2021/12/27 01:49:24;;;;;;;15.60;12.70;;;;;;;1.95;83.76;96863.70;108287;1271;58961;-74
2021/12/27 01:51:53;;;;;;;22.60;15.10;;;;;;;1.94;83.89;96861.88;108325;1269;70574;-74
2021/12/27 01:54:23;;;;;;;22.70;15.30;;;;;;;1.92;83.70;96855.09;108303;1269;68642;-74
2021/12/27 01:56:52;;;;;;;21.20;15.60;;;;;;;1.85;84.29;96859.52;108290;1271;69420;-74
2021/12/27 01:59:23;;;;;;;14.30;10.80;;;;;;;1.82;84.66;96863.28;108292;1271;58887;-74
2021/12/27 02:01:53;;;;;;;24.20;16.80;;;;;;;1.79;84.71;96862.89;108353;1271;58941;-72
2021/12/27 02:04:23;;;;;;;20.70;15.20;;;;;;;1.72;84.78;96858.06;108360;1271;71108;-73
2021/12/27 02:06:52;;;;;;;24.20;17.00;;;;;;;1.66;84.95;96854.38;108350;1269;67948;-73
2021/12/27 02:09:30;;;;;;;22.00;16.20;;;;;;;1.64;85.13;96847.47;108428;1271;68724;-72
2021/12/27 02:11:59;;;;;;;18.00;12.60;;;;;;;1.63;84.87;96848.05;108501;1269;58830;-74
2021/12/27 02:14:30;;;;;;;19.10;14.60;;;;;;;1.62;85.00;96845.33;108384;1269;59491;-73
2021/12/27 02:17:00;;;;;;;16.80;12.10;;;;;;;1.61;85.04;96843.46;108318;1271;70775;-75
2021/12/27 02:19:29;;;;;;;16.50;12.80;;;;;;;1.60;85.01;96849.88;108390;1271;67766;-73
2021/12/27 02:21:58;;;;;;;19.80;14.20;;;;;;;1.61;85.03;96852.23;108400;1271;69378;-73
2021/12/27 02:24:27;;;;;;;17.40;13.80;;;;;;;1.61;85.17;96857.54;108345;1271;58940;-74
2021/12/27 02:26:56;;;;;;;19.70;13.80;;;;;;;1.62;84.95;96855.98;108341;1269;58885;-74
2021/12/27 02:29:26;;;;;;;21.00;15.60;;;;;;;1.60;85.14;96852.30;108155;1271;69117;-75
2021/12/27 02:31:55;;;;;;;26.90;16.70;;;;;;;1.59;85.25;96851.33;108416;1269;67281;-73
2021/12/27 02:34:25;;;;;;;;;;;;;;;1.57;85.71;96853.30;108371;1272;67962;-72
2021/12/27 02:36:55;;;;;;;23.10;13.00;;;;;;;1.57;85.96;96853.81;108306;1271;58953;-74
2021/12/27 02:39:25;;;;;;;18.40;13.20;;;;;;;1.57;85.73;96857.38;108370;1271;58923;-75
2021/12/27 02:41:56;;;;;;;22.70;16.20;;;;;;;1.58;85.28;96858.56;108399;1269;70026;-75
2021/12/27 02:44:25;;;;;;;19.50;12.60;;;;;;;1.59;85.03;96852.02;108303;1269;68586;-72
2021/12/27 02:46:55;;;;;;;24.40;16.00;;;;;;;1.61;85.22;96847.42;108088;1271;69578;-73
2021/12/27 02:49:24;;;;;;;19.80;13.40;;;;;;;1.64;85.25;96842.63;108091;1269;58904;-72
2021/12/27 02:51:54;;;;;;;16.40;12.20;;;;;;;1.70;85.23;96844.61;108079;1272;58954;-72
2021/12/27 02:54:23;;;;;;;19.50;14.50;;;;;;;1.74;85.28;96843.72;108151;1270;69550;-72
2021/12/27 02:56:52;;;;;;;11.00;8.50;;;;;;;1.78;85.40;96846.62;108151;1272;68598;-73
2021/12/27 02:59:22;;;;;;;17.80;12.50;;;;;;;1.83;85.42;96846.26;108025;1271;69471;-72
2021/12/27 03:01:51;;;;;;;30.30;19.80;;;;;;;1.85;85.28;96840.29;108185;1272;58961;-72
2021/12/27 03:04:21;;;;;;;33.00;22.60;;;;;;;1.86;85.11;96836.46;108111;1272;58955;-72
2021/12/27 03:06:51;;;;;;;29.00;20.40;;;;;;;1.86;85.23;96832.54;108096;1272;69827;-71
2021/12/27 03:09:22;;;;;;;28.50;19.90;;;;;;;1.88;85.20;96831.75;108141;1272;67945;-71
2021/12/27 03:11:53;;;;;;;30.30;20.80;;;;;;;1.88;85.22;96826.39;108128;1271;69459;-72
2021/12/27 03:14:23;;;;;;;28.60;19.30;;;;;;;1.88;85.28;96820.36;108151;1272;58954;-72
2021/12/27 03:16:53;;;;;;;27.90;20.00;;;;;;;1.92;85.40;96818.84;108316;1269;58814;-72
2021/12/27 03:19:23;;;;;;;21.20;16.20;;;;;;;1.95;85.27;96820.25;108125;1272;70727;-72
2021/12/27 03:21:52;;;;;;;18.70;12.00;;;;;;;1.99;85.37;96823.31;108108;1272;68905;-72
2021/12/27 03:24:25;;;;;;;17.20;12.00;;;;;;;2.03;85.17;96821.55;108126;1272;69241;-72
2021/12/27 03:26:54;;;;;;;20.70;12.80;;;;;;;2.04;85.17;96816.38;108135;1272;58980;-72
2021/12/27 03:29:24;;;;;;;19.10;13.30;;;;;;;2.03;85.13;96820.69;108188;1267;58897;-72
2021/12/27 03:31:55;;;;;;;;;;;;;;;2.03;84.80;96822.77;108324;1269;70632;-72
2021/12/27 03:34:25;;;;;;;24.30;16.20;;;;;;;2.02;84.83;96827.96;108170;1271;67839;-72
2021/12/27 03:36:55;;;;;;;28.40;20.90;;;;;;;2.01;84.81;96824.92;108315;1269;68473;-72
2021/12/27 03:39:24;;;;;;;28.70;20.30;;;;;;;1.98;84.93;96824.70;108203;1272;58941;-73
2021/12/27 03:41:54;;;;;;;32.10;23.20;;;;;;;1.94;85.54;96826.30;108423;1269;58952;-74
2021/12/27 03:44:24;;;;;;;27.50;18.80;;;;;;;1.93;85.35;96830.11;108215;1271;69952;-73
2021/12/27 03:46:53;;;;;;;33.40;22.50;;;;;;;1.92;85.48;96829.64;108343;1272;67968;-74
2021/12/27 03:49:23;;;;;;;26.10;19.30;;;;;;;1.93;85.42;96828.40;108031;1274;69482;-71
2021/12/27 03:51:52;;;;;;;28.00;18.60;;;;;;;1.94;85.50;96829.89;108325;1271;58973;-72
2021/12/27 03:54:22;;;;;;;26.70;19.40;;;;;;;1.97;85.57;96832.30;108327;1269;58834;-72
2021/12/27 03:56:51;;;;;;;21.00;16.30;;;;;;;2.01;85.52;96834.73;108283;1271;70651;-73
2021/12/27 03:59:34;;;;;;;26.30;17.70;;;;;;;2.03;85.55;96834.61;108321;1270;68347;-74
2021/12/27 04:02:04;;;;;;;29.30;19.20;;;;;;;2.04;85.71;96830.79;108314;1271;69427;-73
2021/12/27 04:04:34;;;;;;;28.90;18.10;;;;;;;2.02;85.64;96825.54;108327;1271;58911;-73
2021/12/27 04:07:07;;;;;;;22.70;14.90;;;;;;;2.01;85.78;96824.91;108138;1269;58943;-73
2021/12/27 04:09:37;;;;;;;21.30;14.40;;;;;;;2.02;85.75;96820.38;108029;1270;70819;-73
2021/12/27 04:12:07;;;;;;;18.00;12.40;;;;;;;2.05;85.56;96815.45;108059;1271;68008;-73
2021/12/27 04:14:40;;;;;;;32.60;20.80;;;;;;;2.06;85.56;96811.27;108403;1268;68680;-72
2021/12/27 04:17:09;;;;;;;26.30;20.00;;;;;;;2.07;85.62;96815.38;108169;1271;58955;-72
2021/12/27 04:19:38;;;;;;;33.20;21.50;;;;;;;2.08;85.71;96813.09;108345;1271;58901;-73
2021/12/27 04:22:07;;;;;;;24.80;18.30;;;;;;;2.10;85.57;96816.11;108310;1271;70785;-72
2021/12/27 04:24:37;;;;;;;23.10;17.80;;;;;;;2.12;85.64;96817.71;108351;1271;68065;-73
2021/12/27 04:27:06;;;;;;;29.10;19.50;;;;;;;2.15;85.62;96816.36;108325;1271;68507;-72
2021/12/27 04:29:35;;;;;;;27.60;19.20;;;;;;;2.16;85.78;96817.99;108309;1271;58907;-72
2021/12/27 04:32:04;;;;;;;24.00;16.60;;;;;;;2.16;85.90;96822.30;108080;1273;58870;-72
2021/12/27 04:34:33;;;;;;;22.80;15.10;;;;;;;2.13;85.93;96826.26;108134;1271;69975;-73
2021/12/27 04:37:03;;;;;;;18.80;13.40;;;;;;;2.12;86.31;96823.03;108328;1271;68003;-73
2021/12/27 04:39:33;;;;;;;19.40;13.90;;;;;;;2.13;86.28;96823.52;108124;1268;69536;-73
2021/12/27 04:42:04;;;;;;;24.00;15.50;;;;;;;2.13;86.24;96823.86;108338;1271;58892;-73
2021/12/27 04:44:34;;;;;;;25.00;16.90;;;;;;;2.11;85.97;96823.27;108405;1270;58845;-72
2021/12/27 04:47:03;;;;;;;24.50;15.40;;;;;;;2.06;86.24;96825.73;108433;1268;69931;-74
2021/12/27 04:49:33;;;;;;;19.20;13.70;;;;;;;2.01;86.02;96825.95;108298;1271;67825;-74
2021/12/27 04:52:02;;;;;;;17.70;12.80;;;;;;;1.97;85.88;96822.52;108321;1271;68473;-75
2021/12/27 04:54:31;;;;;;;18.30;14.20;;;;;;;1.96;85.91;96817.96;108384;1269;58951;-73
2021/12/27 04:57:01;;;;;;;21.70;14.20;;;;;;;1.95;85.95;96817.31;108153;1272;58970;-71
2021/12/27 04:59:31;;;;;;;19.20;15.20;;;;;;;1.96;85.96;96821.20;108365;1271;70643;-73
2021/12/27 05:02:01;;;;;;;25.70;16.30;;;;;;;1.93;86.00;96815.35;108391;1269;68222;-72
2021/12/27 05:04:31;;;;;;;;;;;;;;;1.89;85.95;96810.36;108419;1271;69682;-71
2021/12/27 05:07:00;;;;;;;23.00;15.00;;;;;;;1.84;86.00;96810.81;108430;1271;58872;-71
2021/12/27 05:09:29;;;;;;;20.00;13.60;;;;;;;1.82;85.99;96814.02;108379;1269;58818;-72
2021/12/27 05:11:59;;;;;;;20.90;14.00;;;;;;;1.79;85.93;96816.48;108086;1274;69774;-72
2021/12/27 05:14:28;;;;;;;20.70;14.90;;;;;;;1.79;86.13;96820.31;108460;1271;68498;-72
2021/12/27 05:16:58;;;;;;;20.60;15.50;;;;;;;1.80;86.26;96824.73;108379;1269;69468;-71
2021/12/27 05:19:27;;;;;;;;;;;;;;;1.80;86.49;96825.06;108441;1269;58848;-71
2021/12/27 05:21:56;;;;;;;21.20;14.40;;;;;;;1.80;86.56;96822.15;108364;1271;58891;-72
2021/12/27 05:24:27;;;;;;;23.40;15.80;;;;;;;1.81;86.64;96814.73;108417;1269;71021;-72
2021/12/27 05:26:57;;;;;;;22.10;14.90;;;;;;;1.81;86.61;96807.33;108408;1271;67500;-72
2021/12/27 05:29:26;;;;;;;22.20;15.50;;;;;;;1.77;86.50;96803.05;108350;1269;69063;-74
2021/12/27 05:32:01;;;;;;;21.10;12.70;;;;;;;1.69;86.45;96807.55;108479;1269;58946;-72
2021/12/27 05:34:36;;;;;;;20.70;14.10;;;;;;;1.65;86.43;96804.14;108148;1271;58864;-73
2021/12/27 05:37:10;;;;;;;20.90;15.20;;;;;;;1.62;86.46;96804.63;108387;1269;69783;-72
2021/12/27 05:39:40;;;;;;;23.30;14.90;;;;;;;1.58;86.45;96803.77;108344;1271;68671;-72
2021/12/27 05:42:09;;;;;;;21.90;15.40;;;;;;;1.55;86.53;96809.08;108341;1271;69461;-72
2021/12/27 05:44:38;;;;;;;20.30;13.30;;;;;;;1.50;86.71;96805.84;108413;1271;58973;-73
2021/12/27 05:47:07;;;;;;;17.20;12.30;;;;;;;1.50;86.57;96810.48;108141;1272;58890;-72
2021/12/27 05:49:36;;;;;;;16.80;12.50;;;;;;;1.52;86.70;96811.73;108402;1271;69948;-73
2021/12/27 05:52:06;;;;;;;14.30;11.10;;;;;;;1.58;86.67;96808.59;108303;1268;68316;-73
2021/12/27 05:54:34;;;;;;;18.40;14.40;;;;;;;1.64;86.62;96801.30;108320;1271;69496;-73
2021/12/27 05:57:04;;;;;;;14.90;12.00;;;;;;;1.67;86.69;96804.04;108186;1271;58905;-72
2021/12/27 05:59:33;;;;;;;14.10;11.00;;;;;;;1.70;86.67;96801.98;108344;1271;58837;-72
2021/12/27 06:02:03;;;;;;;13.70;9.20;;;;;;;1.74;86.61;96805.95;108331;1271;69884;-72
2021/12/27 06:04:32;;;;;;;16.30;11.70;;;;;;;1.78;86.60;96804.02;108379;1270;67840;-72
2021/12/27 06:07:01;;;;;;;15.10;11.40;;;;;;;1.81;86.39;96803.04;108320;1271;69734;-72
2021/12/27 06:09:30;;;;;;;16.00;12.30;;;;;;;1.81;86.28;96801.66;108437;1269;58920;-73
2021/12/27 06:11:59;;;;;;;21.50;13.90;;;;;;;1.78;86.32;96799.21;108084;1271;58905;-72
2021/12/27 06:14:28;;;;;;;18.10;13.40;;;;;;;1.75;86.13;96801.23;108340;1271;70779;-73
2021/12/27 06:16:57;;;;;;;19.70;13.60;;;;;;;1.71;86.26;96799.39;108358;1271;68613;-72
2021/12/27 06:19:26;;;;;;;19.60;12.50;;;;;;;1.66;86.31;96802.01;108081;1271;68771;-74
2021/12/27 06:21:56;;;;;;;19.00;13.90;;;;;;;1.63;86.28;96800.79;108371;1271;58965;-72
2021/12/27 06:24:24;;;;;;;19.90;13.00;;;;;;;1.60;86.29;96798.88;108491;1268;58901;-72
2021/12/27 06:26:53;;;;;;;15.10;10.70;;;;;;;1.55;86.40;96796.70;108100;1272;70793;-73
2021/12/27 06:29:23;;;;;;;13.10;9.60;;;;;;;1.54;86.34;96793.66;108342;1271;67750;-72
2021/12/27 06:31:52;;;;;;;16.60;11.20;;;;;;;1.57;86.51;96792.35;108151;1271;67997;-73
2021/12/27 06:34:21;;;;;;;18.20;12.50;;;;;;;1.60;86.47;96792.33;108362;1269;58964;-72
2021/12/27 06:36:50;;;;;;;16.60;11.80;;;;;;;1.63;86.58;96790.14;108330;1270;58880;-74
2021/12/27 06:39:19;;;;;;;18.40;13.20;;;;;;;1.66;86.76;96789.12;108525;1272;70674;-72
2021/12/27 06:41:48;;;;;;;23.40;14.80;;;;;;;1.69;86.64;96791.02;108443;1271;68128;-72
2021/12/27 06:44:17;;;;;;;20.20;14.50;;;;;;;1.74;86.59;96786.86;108188;1271;68918;-71
2021/12/27 06:46:46;;;;;;;24.40;17.20;;;;;;;1.78;86.54;96786.00;108455;1269;58882;-72
2021/12/27 06:49:16;;;;;;;24.60;16.60;;;;;;;1.78;86.53;96787.34;108421;1269;58971;-73
2021/12/27 06:51:45;;;;;;;23.10;16.00;;;;;;;1.82;86.69;96787.53;108202;1270;70226;-72
2021/12/27 06:54:14;;;;;;;22.20;16.20;;;;;;;1.86;86.57;96782.69;108432;1269;69440;-73
2021/12/27 06:56:43;;;;;;;19.70;14.20;;;;;;;1.92;86.57;96774.84;108436;1269;68747;-72
2021/12/27 06:59:13;;;;;;;20.70;15.30;;;;;;;1.96;86.62;96774.63;108438;1271;58976;-71
2021/12/27 07:01:43;;;;;;;21.70;15.30;;;;;;;2.02;86.53;96778.78;108520;1269;58948;-72
2021/12/27 07:04:12;;;;;;;20.60;13.60;;;;;;;2.09;86.50;96775.37;108574;1269;70788;-72
2021/12/27 07:06:42;;;;;;;26.80;19.00;;;;;;;2.14;86.40;96775.30;108308;1271;67887;-71
2021/12/27 07:09:13;;;;;;;23.70;16.90;;;;;;;2.19;86.58;96775.09;108597;1271;69439;-73
2021/12/27 07:11:43;;;;;;;30.00;21.30;;;;;;;2.24;86.88;96772.59;108429;1272;58896;-72
2021/12/27 07:14:11;;;;;;;22.80;16.50;;;;;;;2.29;86.94;96767.52;108468;1269;59353;-72
2021/12/27 07:16:41;;;;;;;23.90;18.70;;;;;;;2.35;86.68;96759.66;108551;1269;70337;-71
2021/12/27 07:19:10;;;;;;;29.80;20.60;;;;;;;2.41;86.40;96760.39;108303;1269;69204;-71
2021/12/27 07:21:38;;;;;;;27.90;19.30;;;;;;;2.43;86.21;96758.00;108477;1271;69566;-71
2021/12/27 07:24:07;;;;;;;29.60;19.10;;;;;;;2.46;86.13;96761.86;108405;1271;58895;-72
2021/12/27 07:26:36;;;;;;;33.00;20.80;;;;;;;2.49;85.84;96758.75;108298;1271;58888;-73
2021/12/27 07:29:05;;;;;;;33.50;22.60;;;;;;;2.51;85.63;96754.90;108357;1272;70788;-72
2021/12/27 07:31:34;;;;;;;29.50;20.80;;;;;;;2.51;85.44;96751.77;108376;1270;67989;-72
2021/12/27 07:34:04;;;;;;;30.80;20.60;;;;;;;2.53;85.41;96749.96;108443;1269;69827;-73
2021/12/27 07:36:33;;;;;;;29.90;21.80;;;;;;;2.53;85.43;96743.55;108403;1269;58935;-72
2021/12/27 07:39:03;;;;;;;28.50;19.30;;;;;;;2.56;85.31;96742.26;108296;1271;59335;-73
2021/12/27 07:41:32;;;;;;;36.80;26.50;;;;;;;2.58;85.71;96741.48;108459;1270;70010;-72
2021/12/27 07:44:04;;;;;;;43.40;30.50;;;;;;;2.62;85.87;96737.99;108361;1271;68893;-71
2021/12/27 07:46:35;;;;;;;39.20;29.40;;;;;;;2.64;85.93;96739.95;108430;1271;70132;-72
2021/12/27 07:49:04;;;;;;;37.10;27.90;;;;;;;2.67;85.91;96740.27;108305;1271;58914;-72
2021/12/27 07:51:34;;;;;;;37.50;26.70;;;;;;;2.71;85.89;96740.59;108346;1270;58891;-68
2021/12/27 07:54:04;;;;;;;32.70;23.40;;;;;;;2.74;86.15;96747.50;108288;1271;70436;-68
2021/12/27 07:56:33;;;;;;;33.60;24.30;;;;;;;2.75;86.25;96745.70;108426;1271;68731;-69
2021/12/27 07:59:04;;;;;;;24.80;20.10;;;;;;;2.78;86.03;96738.02;108307;1271;69551;-69
2021/12/27 08:01:38;;;;;;;25.70;17.00;;;;;;;2.80;85.84;96737.55;108311;1272;58955;-67
2021/12/27 08:04:11;;;;;;;27.10;20.30;;;;;;;2.82;85.66;96742.27;108336;1271;58949;-68
2021/12/27 08:06:40;;;;;;;23.40;16.10;;;;;;;2.83;85.54;96742.41;108329;1271;70860;-68
2021/12/27 08:09:08;;;;;;;21.90;16.80;;;;;;;2.85;85.44;96732.98;108109;1271;67972;-70
2021/12/27 08:11:46;;;;;;;31.10;22.10;;;;;;;2.86;85.67;96734.14;108297;1272;69722;-68
2021/12/27 08:14:15;;;;;;;26.90;20.50;;;;;;;2.88;85.98;96740.07;108288;1269;59297;-69
2021/12/27 08:16:44;;;;;;;20.50;14.70;;;;;;;2.91;86.03;96740.41;108272;1271;58888;-69
2021/12/27 08:19:13;;;;;;;24.10;17.20;;;;;;;2.91;86.02;96739.08;108115;1271;71464;-70
2021/12/27 08:21:43;;;;;;;16.70;12.40;;;;;;;2.82;86.02;96735.03;108348;1269;67869;-69
2021/12/27 08:24:12;;;;;;;20.90;14.70;;;;;;;2.81;85.77;96738.35;108309;1271;69669;-69
2021/12/27 08:26:41;;;;;;;20.00;14.50;;;;;;;2.80;85.67;96744.05;108383;1271;58960;-69
2021/12/27 08:29:11;;;;;;;27.30;20.90;;;;;;;2.79;85.41;96744.46;108365;1271;58901;-69
2021/12/27 08:31:41;;;;;;;28.70;19.90;;;;;;;2.73;84.92;96741.89;108085;1271;71183;-69
2021/12/27 08:34:10;;;;;;;24.70;18.70;;;;;;;2.61;84.89;96747.48;108302;1271;68498;-69
2021/12/27 08:36:39;;;;;;;28.80;21.20;;;;;;;2.53;85.08;96747.90;108198;1269;69749;-70
2021/12/27 08:39:08;;;;;;;26.20;19.20;;;;;;;2.49;85.09;96748.62;108412;1269;58897;-69
2021/12/27 08:41:37;;;;;;;26.00;18.90;;;;;;;2.48;84.88;96747.08;108354;1269;58898;-69
2021/12/27 08:44:07;;;;;;;28.50;20.90;;;;;;;2.48;84.89;96750.21;108341;1271;70827;-69
2021/12/27 08:46:36;;;;;;;24.70;18.70;;;;;;;2.47;84.94;96747.86;108418;1271;68734;-68
2021/12/27 08:49:08;;;;;;;31.90;21.40;;;;;;;2.46;85.10;96744.99;108156;1272;68609;-68
2021/12/27 08:51:37;;;;;;;33.40;24.20;;;;;;;2.44;85.25;96746.46;108128;1272;58893;-68
2021/12/27 08:54:06;;;;;;;33.30;24.10;;;;;;;2.41;85.39;96745.08;108192;1272;58860;-67
2021/12/27 08:56:38;;;;;;;;;;;;;;;2.38;85.71;96740.55;108207;1272;70238;-68
2021/12/27 08:59:22;;;;;;;23.00;16.10;;;;;;;2.36;86.24;96737.25;108054;1272;68886;-68
2021/12/27 09:02:07;;;;;;;30.90;22.30;;;;;;;2.40;85.86;96735.66;107911;1271;308437;-67
2021/12/27 09:04:39;;;;;;;30.60;23.10;;;;;;;2.36;85.80;96731.73;108259;1273;58903;-69
2021/12/27 09:07:09;;;;;;;24.20;18.90;;;;;;;2.33;85.87;96723.84;108234;1272;58950;-68
2021/12/27 09:09:39;;;;;;;;;;;;;;;2.32;86.07;96723.86;108253;1274;71453;-68
2021/12/27 09:12:09;;;;;;;24.40;17.40;;;;;;;2.35;86.00;96722.67;108150;1272;68142;-68
2021/12/27 09:14:38;;;;;;;17.70;12.80;;;;;;;2.37;86.21;96720.86;108155;1270;69427;-68
2021/12/27 09:17:08;;;;;;;24.50;18.00;;;;;;;2.38;86.09;96712.21;108159;1272;58954;-69
2021/12/27 09:19:37;;;;;;;24.20;19.50;;;;;;;2.39;85.55;96709.59;108203;1272;58887;-69
2021/12/27 09:22:06;;;;;;;20.00;13.10;;;;;;;2.39;85.33;96706.98;108241;1272;69803;-68
2021/12/27 09:24:35;;;;;;;24.20;20.00;;;;;;;2.40;85.40;96705.56;108143;1273;68638;-68
2021/12/27 09:27:04;;;;;;;21.70;15.00;;;;;;;2.40;85.19;96701.27;108162;1272;68983;-68
2021/12/27 09:29:33;;;;;;;31.50;22.00;;;;;;;2.40;84.86;96699.04;108104;1274;58961;-68
2021/12/27 09:32:02;;;;;;;30.00;20.40;;;;;;;2.37;84.62;96698.00;108149;1272;58921;-68
2021/12/27 09:34:32;;;;;;;21.30;14.50;;;;;;;2.31;84.59;96694.48;108062;1275;70082;-68
2021/12/27 09:37:00;;;;;;;24.30;16.40;;;;;;;2.28;84.71;96695.36;108175;1272;69259;-68
2021/12/27 09:39:30;;;;;;;26.20;18.20;;;;;;;2.25;84.56;96689.47;108110;1272;69553;-68
2021/12/27 09:41:59;;;;;;;27.30;19.80;;;;;;;2.23;84.50;96684.44;108094;1271;58931;-69
2021/12/27 09:44:29;;;;;;;23.20;16.70;;;;;;;2.14;84.84;96680.08;108358;1272;58913;-69
2021/12/27 09:46:58;;;;;;;28.70;18.60;;;;;;;2.13;84.86;96673.12;108240;1273;68958;-67
2021/12/27 09:49:29;;;;;;;27.20;19.90;;;;;;;2.10;85.14;96670.14;108159;1271;68735;-68
2021/12/27 09:52:00;;;;;;;23.70;17.50;;;;;;;2.02;85.39;96666.41;108196;1271;69445;-69
2021/12/27 09:54:29;;;;;;;23.70;16.50;;;;;;;2.01;85.32;96663.02;108281;1272;58941;-70
2021/12/27 09:56:58;;;;;;;24.80;17.80;;;;;;;1.99;85.28;96660.87;108259;1271;58952;-68
2021/12/27 09:59:27;;;;;;;22.00;16.00;;;;;;;2.00;85.42;96655.00;108143;1271;71319;-69
2021/12/27 10:01:56;;;;;;;25.40;18.20;;;;;;;2.00;85.41;96655.35;108228;1271;68681;-67
2021/12/27 10:04:25;;;;;;;21.70;15.30;;;;;;;1.99;85.55;96652.48;108166;1271;69472;-68
2021/12/27 10:06:54;;;;;;;24.70;16.40;;;;;;;2.00;85.59;96653.24;108111;1272;58911;-69
2021/12/27 10:09:23;;;;;;;20.70;15.60;;;;;;;2.03;85.34;96658.45;108062;1274;58838;-69
2021/12/27 10:11:52;;;;;;;22.20;16.60;;;;;;;2.06;85.03;96664.33;108078;1271;70964;-69
2021/12/27 10:14:24;;;;;;;23.70;17.70;;;;;;;2.07;85.03;96661.16;108245;1274;68636;-69
2021/12/27 10:17:04;;;;;;;25.20;18.60;;;;;;;2.10;84.79;96665.69;108124;1272;69745;-69
2021/12/27 10:19:34;;;;;;;25.50;18.30;;;;;;;2.09;84.93;96670.36;108169;1273;59338;-68
2021/12/27 10:22:09;;;;;;;24.50;16.10;;;;;;;2.11;84.85;96668.52;108197;1271;58893;-69
2021/12/27 10:24:39;;;;;;;24.20;17.60;;;;;;;2.13;84.89;96674.14;108240;1272;70870;-69
2021/12/27 10:27:08;;;;;;;22.30;17.30;;;;;;;2.13;85.02;96679.62;108210;1272;67082;-69
2021/12/27 10:29:39;;;;;;;21.70;13.40;;;;;;;2.15;85.11;96677.94;108171;1271;70042;-69
2021/12/27 10:32:16;;;;;;;18.20;11.90;;;;;;;2.19;85.11;96679.67;108120;1273;58957;-68
2021/12/27 10:34:48;;;;;;;19.20;13.70;;;;;;;2.23;84.90;96675.84;108119;1271;58831;-68
2021/12/27 10:37:25;;;;;;;18.30;13.00;;;;;;;2.26;84.84;96677.39;108253;1273;71428;-68
2021/12/27 10:40:03;;;;;;;16.10;12.90;;;;;;;2.29;85.02;96670.02;108126;1274;68666;-68
2021/12/27 10:42:45;;;;;;;20.90;15.00;;;;;;;2.32;84.95;96668.85;108187;1271;68723;-68
2021/12/27 10:45:22;;;;;;;14.80;11.20;;;;;;;2.36;84.84;96668.82;108176;1271;58901;-69
2021/12/27 10:48:02;;;;;;;18.40;12.40;;;;;;;2.38;85.00;96663.34;108154;1274;58957;-69
2021/12/27 10:50:33;;;;;;;18.70;14.30;;;;;;;2.40;85.02;96656.75;108151;1271;70224;-69
2021/12/27 10:53:07;;;;;;;22.10;15.40;;;;;;;2.42;85.20;96651.14;108221;1272;67540;-70
2021/12/27 10:55:40;;;;;;;14.00;9.40;;;;;;;2.41;85.51;96651.52;108215;1272;70050;-68
2021/12/27 10:58:20;;;;;;;17.20;11.20;;;;;;;2.44;85.34;96648.09;108186;1271;58950;-69
2021/12/27 11:00:58;;;;;;;15.90;12.10;;;;;;;2.45;85.71;96647.51;108095;1271;58974;-69
2021/12/27 11:03:33;;;;;;;18.40;14.20;;;;;;;2.45;85.80;96645.30;108193;1272;70844;-70
2021/12/27 11:06:05;;;;;;;19.20;13.60;;;;;;;2.45;86.11;96649.41;108228;1271;67735;-69
2021/12/27 11:08:36;;;;;;;16.90;12.40;;;;;;;2.48;85.79;96654.59;108104;1273;68631;-68
2021/12/27 11:11:06;;;;;;;14.60;10.90;;;;;;;2.51;85.61;96655.27;108018;1273;58938;-68
2021/12/27 11:13:35;;;;;;;16.50;14.00;;;;;;;2.56;85.53;96649.70;108199;1273;58876;-67
2021/12/27 11:16:05;;;;;;;11.40;9.20;;;;;;;2.61;85.64;96652.86;108177;1271;70581;-68
2021/12/27 11:18:36;;;;;;;16.80;13.50;;;;;;;2.68;85.58;96651.30;108256;1271;69164;-69
2021/12/27 11:21:15;;;;;;;12.60;9.30;;;;;;;2.75;85.52;96647.50;107899;1274;68681;-70
2021/12/27 11:23:51;;;;;;;20.30;14.70;;;;;;;2.80;85.73;96646.70;108181;1273;58976;-68
2021/12/27 11:26:31;;;;;;;22.00;15.10;;;;;;;2.81;85.75;96645.08;108366;1273;58863;-67
2021/12/27 11:29:30;;;;;;;15.50;11.50;;;;;;;2.81;85.77;96640.78;108132;1272;70191;-67
2021/12/27 11:32:17;;;;;;;17.50;13.70;;;;;;;2.85;85.66;96640.93;108156;1273;68594;-68
2021/12/27 11:35:02;;;;;;;18.70;13.70;;;;;;;2.90;85.74;96636.02;107938;1273;68731;-70
2021/12/27 11:37:41;;;;;;;12.80;8.20;;;;;;;2.94;85.73;96634.02;108030;1274;58901;-68